createdAt,value
2018-10-06T00:01:24.653Z,99.90
2018-10-06T00:03:52.930Z,99.90
2018-10-06T00:06:21.241Z,99.90
2018-10-06T00:08:49.637Z,99.90
2018-10-06T00:11:18.869Z,99.90
2018-10-06T00:13:48.224Z,99.90
2018-10-06T00:16:16.526Z,99.90
2018-10-06T00:18:45.723Z,99.90
2018-10-06T00:21:14.018Z,99.90
2018-10-06T00:23:43.183Z,99.90
2018-10-06T00:26:12.306Z,99.90
2018-10-06T00:28:41.288Z,99.90
2018-10-06T00:31:10.390Z,99.90
2018-10-06T00:33:39.495Z,99.90
2018-10-06T00:36:08.738Z,99.90
2018-10-06T00:38:37.875Z,99.90
2018-10-06T00:41:07.125Z,99.90
2018-10-06T00:43:35.482Z,99.90
2018-10-06T00:46:04.608Z,99.90
2018-10-06T00:48:33.896Z,99.90
2018-10-06T00:51:03.181Z,99.90
2018-10-06T00:53:32.879Z,99.90
2018-10-06T00:56:02.523Z,99.90
2018-10-06T00:58:31.822Z,99.90
2018-10-06T01:01:01.224Z,99.90
2018-10-06T01:03:30.247Z,99.90
2018-10-06T01:05:59.449Z,99.90
2018-10-06T01:08:28.538Z,99.90
2018-10-06T01:10:57.598Z,99.90
2018-10-06T01:13:26.646Z,99.90
2018-10-06T01:15:55.772Z,99.90
2018-10-06T01:18:24.918Z,99.90
2018-10-06T01:20:54.014Z,99.90
2018-10-06T01:23:23.310Z,99.90
2018-10-06T01:25:52.625Z,99.90
2018-10-06T01:28:22.470Z,99.90
2018-10-06T01:30:52.346Z,99.90
2018-10-06T01:33:21.793Z,99.90
2018-10-06T01:35:50.970Z,99.90
2018-10-06T01:38:20.082Z,99.90
2018-10-06T01:40:49.134Z,99.90
2018-10-06T01:43:18.205Z,99.90
2018-10-06T01:45:47.640Z,99.90
2018-10-06T01:48:15.906Z,99.90
2018-10-06T01:50:44.924Z,99.90
2018-10-06T01:53:14.050Z,99.90
2018-10-06T01:55:43.191Z,99.90
2018-10-06T01:58:12.387Z,99.90
2018-10-06T02:00:41.663Z,99.90
2018-10-06T02:03:11.154Z,99.90
2018-10-06T02:05:39.774Z,99.90
2018-10-06T02:08:09.190Z,99.90
2018-10-06T02:10:38.699Z,99.90
2018-10-06T02:13:08.139Z,99.90
2018-10-06T02:15:37.359Z,99.90
2018-10-06T02:18:06.478Z,99.90
2018-10-06T02:20:35.519Z,99.90
2018-10-06T02:23:04.581Z,99.90
2018-10-06T02:25:33.665Z,99.90
2018-10-06T02:28:02.863Z,99.90
2018-10-06T02:30:32.070Z,99.90
2018-10-06T02:33:01.521Z,99.90
2018-10-06T02:35:31.176Z,99.90
2018-10-06T02:38:00.444Z,99.90
2018-10-06T02:40:30.085Z,99.90
2018-10-06T02:42:59.907Z,99.90
2018-10-06T02:45:29.315Z,99.90
2018-10-06T02:47:58.382Z,99.90
2018-10-06T02:50:27.487Z,99.90
2018-10-06T02:52:56.479Z,99.90
2018-10-06T02:55:25.554Z,99.90
2018-10-06T02:57:54.545Z,99.90
2018-10-06T03:00:23.662Z,99.90
2018-10-06T03:02:52.867Z,99.90
2018-10-06T03:05:21.918Z,99.90
2018-10-06T03:07:52.333Z,99.90
2018-10-06T03:10:21.686Z,99.90
2018-10-06T03:12:51.164Z,99.90
2018-10-06T03:15:20.560Z,99.90
2018-10-06T03:17:49.775Z,99.90
2018-10-06T03:20:18.870Z,99.90
2018-10-06T03:22:47.966Z,99.90
2018-10-06T03:25:17.097Z,99.90
2018-10-06T03:27:46.200Z,99.90
2018-10-06T03:30:15.296Z,99.90
2018-10-06T03:32:44.544Z,99.90
2018-10-06T03:35:13.738Z,99.90
2018-10-06T03:37:43.195Z,99.90
2018-10-06T03:40:11.586Z,99.90
2018-10-06T03:42:39.893Z,99.90
2018-10-06T03:45:08.257Z,99.90
2018-10-06T03:47:36.500Z,99.90
2018-10-06T03:50:04.682Z,99.90
2018-10-06T03:52:33.607Z,99.90
2018-10-06T03:55:01.820Z,99.90
2018-10-06T03:57:30.794Z,99.90
2018-10-06T03:59:59.768Z,99.90
2018-10-06T04:02:28.835Z,99.90
2018-10-06T04:04:57.870Z,99.90
2018-10-06T04:07:26.942Z,99.90
2018-10-06T04:09:56.116Z,99.90
2018-10-06T04:12:25.282Z,99.90
2018-10-06T04:14:53.601Z,99.90
2018-10-06T04:17:21.878Z,99.90
2018-10-06T04:19:50.076Z,99.90
2018-10-06T04:22:18.281Z,99.90
2018-10-06T04:24:46.446Z,99.90
2018-10-06T04:27:14.626Z,99.90
2018-10-06T04:29:42.790Z,99.90
2018-10-06T04:32:11.166Z,99.90
2018-10-06T04:34:39.360Z,99.90
2018-10-06T04:37:07.738Z,99.90
2018-10-06T04:39:36.212Z,99.90
2018-10-06T04:42:04.801Z,99.90
2018-10-06T04:44:33.106Z,99.90
2018-10-06T04:47:01.642Z,99.90
2018-10-06T04:49:30.233Z,99.90
2018-10-06T04:51:59.095Z,99.90
2018-10-06T04:54:28.053Z,99.90
2018-10-06T04:56:56.631Z,99.90
2018-10-06T04:59:25.317Z,99.90
2018-10-06T05:01:53.765Z,99.90
2018-10-06T05:04:22.910Z,99.90
2018-10-06T05:06:51.584Z,99.90
2018-10-06T05:09:20.153Z,99.90
2018-10-06T05:11:48.877Z,99.90
2018-10-06T05:14:17.742Z,99.90
2018-10-06T05:16:46.302Z,99.90
2018-10-06T05:19:15.250Z,99.90
2018-10-06T05:21:43.981Z,99.90
2018-10-06T05:24:12.506Z,99.90
2018-10-06T05:26:41.130Z,99.90
2018-10-06T05:29:09.528Z,99.90
2018-10-06T05:31:38.285Z,99.90
2018-10-06T05:34:06.868Z,99.90
2018-10-06T05:36:35.859Z,99.90
2018-10-06T05:39:05.778Z,99.90
2018-10-06T05:41:34.508Z,99.90
2018-10-06T05:44:02.983Z,99.90
2018-10-06T05:46:31.696Z,99.90
2018-10-06T05:49:00.290Z,99.90
2018-10-06T05:51:29.577Z,99.90
2018-10-06T05:53:57.986Z,99.90
2018-10-06T05:56:27.086Z,99.90
2018-10-06T05:58:55.528Z,99.90
2018-10-06T06:01:24.145Z,99.90
2018-10-06T06:03:52.814Z,99.90
2018-10-06T06:06:21.650Z,99.90
2018-10-06T06:08:50.482Z,99.90
2018-10-06T06:11:19.174Z,99.90
2018-10-06T06:13:47.958Z,99.90
2018-10-06T06:16:16.655Z,99.90
2018-10-06T06:18:45.730Z,99.90
2018-10-06T06:21:14.666Z,99.90
2018-10-06T06:23:43.386Z,99.90
2018-10-06T06:26:12.039Z,99.90
2018-10-06T06:28:41.154Z,99.90
2018-10-06T06:31:09.406Z,99.90
2018-10-06T06:33:37.877Z,99.90
2018-10-06T06:36:06.582Z,99.90
2018-10-06T06:38:36.084Z,99.90
2018-10-06T06:41:06.993Z,99.90
2018-10-06T06:43:35.346Z,99.90
2018-10-06T06:46:03.484Z,99.90
2018-10-06T06:48:31.637Z,99.90
2018-10-06T06:50:59.790Z,99.90
2018-10-06T06:53:28.480Z,99.90
2018-10-06T06:55:57.234Z,99.90
2018-10-06T06:58:25.646Z,99.90
2018-10-06T07:00:54.099Z,99.90
2018-10-06T07:03:22.501Z,99.90
2018-10-06T07:05:51.473Z,99.90
2018-10-06T07:08:20.046Z,99.90
2018-10-06T07:10:48.789Z,99.90
2018-10-06T07:13:17.639Z,99.90
2018-10-06T07:15:46.278Z,99.90
2018-10-06T07:18:15.083Z,99.90
2018-10-06T07:20:43.662Z,99.90
2018-10-06T07:23:12.234Z,99.90
2018-10-06T07:25:42.193Z,99.90
2018-10-06T07:28:10.519Z,99.90
2018-10-06T07:30:38.977Z,99.90
2018-10-06T07:33:07.400Z,99.90
2018-10-06T07:35:35.995Z,99.90
2018-10-06T07:38:04.643Z,99.90
2018-10-06T07:40:33.301Z,99.90
2018-10-06T07:43:01.752Z,99.90
2018-10-06T07:45:30.945Z,99.90
2018-10-06T07:48:00.756Z,99.90
2018-10-06T07:50:29.986Z,99.90
2018-10-06T07:52:59.212Z,99.90
2018-10-06T07:55:28.353Z,99.90
2018-10-06T07:57:57.506Z,99.90
2018-10-06T08:00:25.927Z,99.90
2018-10-06T08:02:54.306Z,99.90
2018-10-06T08:05:22.610Z,99.90
2018-10-06T08:07:50.893Z,99.90
2018-10-06T08:10:19.198Z,99.90
2018-10-06T08:12:48.513Z,99.90
2018-10-06T08:15:16.898Z,99.90
2018-10-06T08:17:45.136Z,99.90
2018-10-06T08:20:13.638Z,99.90
2018-10-06T08:22:42.763Z,99.90
2018-10-06T08:25:11.271Z,99.90
2018-10-06T08:27:39.838Z,99.90
2018-10-06T08:30:08.210Z,99.90
2018-10-06T08:32:36.783Z,99.90
2018-10-06T08:35:05.560Z,99.90
2018-10-06T08:37:34.413Z,99.90
2018-10-06T08:40:03.163Z,99.90
2018-10-06T08:42:31.737Z,99.90
2018-10-06T08:45:00.486Z,99.90
2018-10-06T08:47:29.073Z,99.90
2018-10-06T08:49:57.852Z,99.90
2018-10-06T08:52:26.510Z,99.90
2018-10-06T08:54:55.282Z,99.90
2018-10-06T08:57:24.838Z,99.90
2018-10-06T08:59:53.313Z,99.90
2018-10-06T09:02:21.734Z,99.90
2018-10-06T09:04:50.246Z,99.90
2018-10-06T09:07:19.608Z,99.90
2018-10-06T09:09:48.093Z,99.90
2018-10-06T09:12:17.543Z,99.90
2018-10-06T09:14:46.137Z,99.90
2018-10-06T09:17:15.627Z,99.90
2018-10-06T09:19:43.977Z,99.90
2018-10-06T09:22:13.115Z,99.90
2018-10-06T09:24:42.331Z,99.90
2018-10-06T09:27:11.547Z,99.90
2018-10-06T09:29:40.732Z,99.90
2018-10-06T09:32:10.141Z,99.90
2018-10-06T09:34:39.774Z,99.90
2018-10-06T09:37:08.391Z,99.90
2018-10-06T09:39:37.992Z,99.90
2018-10-06T09:42:08.010Z,99.90
2018-10-06T09:44:36.583Z,99.90
2018-10-06T09:47:05.945Z,99.90
2018-10-06T09:49:35.724Z,99.90
2018-10-06T09:52:05.324Z,99.90
2018-10-06T09:54:34.723Z,99.50
2018-10-06T09:57:04.064Z,97.90
2018-10-06T09:59:33.317Z,96.60
2018-10-06T10:02:08.994Z,95.80
2018-10-06T10:04:38.058Z,95.70
2018-10-06T10:07:06.477Z,96.40
2018-10-06T10:09:34.830Z,96.40
2018-10-06T10:12:04.032Z,97.00
2018-10-06T10:14:33.292Z,97.50
2018-10-06T10:17:03.820Z,97.90
2018-10-06T10:19:33.460Z,96.70
2018-10-06T10:22:03.226Z,96.30
2018-10-06T10:24:32.929Z,96.20
2018-10-06T10:27:02.128Z,96.10
2018-10-06T10:29:31.427Z,96.40
2018-10-06T10:32:00.660Z,97.20
2018-10-06T10:34:29.995Z,95.30
2018-10-06T10:36:59.157Z,94.30
2018-10-06T10:39:30.031Z,95.00
2018-10-06T10:41:59.544Z,96.20
2018-10-06T10:44:29.150Z,94.40
2018-10-06T10:46:58.498Z,94.90
2018-10-06T10:49:27.806Z,94.10
2018-10-06T10:51:56.223Z,95.50
2018-10-06T10:54:25.388Z,95.40
2018-10-06T10:56:53.836Z,97.30
2018-10-06T10:59:22.304Z,97.40
2018-10-06T11:01:51.606Z,97.40
2018-10-06T11:04:20.825Z,97.20
2018-10-06T11:06:49.290Z,98.50
2018-10-06T11:09:18.345Z,98.40
2018-10-06T11:11:46.812Z,98.20
2018-10-06T11:14:15.105Z,98.00
2018-10-06T11:16:44.328Z,98.70
2018-10-06T11:19:13.528Z,98.10
2018-10-06T11:21:42.790Z,98.90
2018-10-06T11:24:12.203Z,98.80
2018-10-06T11:26:41.518Z,96.30
2018-10-06T11:29:10.934Z,97.00
2018-10-06T11:31:39.628Z,96.90
2018-10-06T11:34:09.206Z,97.30
2018-10-06T11:36:39.241Z,99.00
2018-10-06T11:39:10.187Z,98.50
2018-10-06T11:41:39.751Z,98.80
2018-10-06T11:44:09.655Z,96.50
2018-10-06T11:46:39.102Z,97.00
2018-10-06T11:49:09.278Z,97.70
2018-10-06T11:51:39.035Z,99.50
2018-10-06T11:54:08.914Z,98.50
2018-10-06T11:56:38.435Z,97.80
2018-10-06T11:59:07.740Z,97.80
2018-10-06T12:01:37.168Z,97.80
2018-10-06T12:04:06.508Z,99.20
2018-10-06T12:06:35.830Z,98.80
2018-10-06T12:09:07.321Z,99.30
2018-10-06T12:11:37.261Z,99.70
2018-10-06T12:14:06.543Z,99.90
2018-10-06T12:16:35.751Z,99.90
2018-10-06T12:19:05.152Z,99.90
2018-10-06T12:21:34.796Z,99.20
2018-10-06T12:24:04.495Z,99.90
2018-10-06T12:26:34.163Z,99.90
2018-10-06T12:29:03.963Z,99.90
2018-10-06T12:31:33.543Z,99.90
2018-10-06T12:34:02.882Z,99.90
2018-10-06T12:36:32.102Z,99.90
2018-10-06T12:39:01.401Z,99.90
2018-10-06T12:41:30.616Z,99.90
2018-10-06T12:44:00.227Z,99.90
2018-10-06T12:46:29.628Z,99.90
2018-10-06T12:48:59.244Z,99.90
2018-10-06T12:51:28.946Z,99.90
2018-10-06T12:53:58.841Z,99.90
2018-10-06T12:56:28.262Z,99.90
2018-10-06T12:58:57.529Z,99.90
2018-10-06T13:01:26.808Z,99.90
2018-10-06T13:03:56.011Z,99.90
2018-10-06T13:06:25.233Z,99.90
2018-10-06T13:08:54.694Z,99.90
2018-10-06T13:11:24.044Z,99.90
2018-10-06T13:13:53.499Z,99.90
2018-10-06T13:16:23.191Z,99.90
2018-10-06T13:18:52.943Z,99.90
2018-10-06T13:21:22.462Z,99.90
2018-10-06T13:23:51.663Z,99.90
2018-10-06T13:26:20.799Z,99.90
2018-10-06T13:28:50.077Z,99.90
2018-10-06T13:31:19.365Z,99.90
2018-10-06T13:33:48.595Z,99.90
2018-10-06T13:36:18.375Z,99.90
2018-10-06T13:38:47.750Z,99.90
2018-10-06T13:41:17.468Z,99.90
2018-10-06T13:43:47.160Z,99.90
2018-10-06T13:46:16.575Z,99.90
2018-10-06T13:48:46.106Z,99.90
2018-10-06T13:51:15.353Z,99.90
2018-10-06T13:53:44.599Z,99.90
2018-10-06T13:56:13.861Z,99.90
2018-10-06T13:58:43.273Z,99.90
2018-10-06T14:01:12.918Z,99.90
2018-10-06T14:03:42.568Z,99.90
2018-10-06T14:06:12.415Z,99.90
2018-10-06T14:08:42.140Z,99.90
2018-10-06T14:11:11.489Z,99.90
2018-10-06T14:13:40.911Z,99.90
2018-10-06T14:16:10.194Z,99.90
2018-10-06T14:18:39.700Z,99.90
2018-10-06T14:21:09.260Z,99.90
2018-10-06T14:23:39.150Z,99.90
2018-10-06T14:26:09.113Z,99.90
2018-10-06T14:28:38.720Z,99.90
2018-10-06T14:31:08.255Z,99.90
2018-10-06T14:33:37.577Z,99.90
2018-10-06T14:36:06.780Z,99.90
2018-10-06T14:38:36.080Z,99.90
2018-10-06T14:41:05.427Z,99.90
2018-10-06T14:43:34.757Z,99.90
2018-10-06T14:46:04.635Z,99.90
2018-10-06T14:48:34.771Z,99.90
2018-10-06T14:51:04.851Z,99.90
2018-10-06T14:53:34.156Z,99.90
2018-10-06T14:56:03.586Z,99.90
2018-10-06T14:58:32.787Z,99.90
2018-10-06T15:01:02.072Z,99.90
2018-10-06T15:03:31.584Z,99.90
2018-10-06T15:06:01.229Z,99.90
2018-10-06T15:08:30.837Z,99.90
2018-10-06T15:11:01.056Z,99.90
2018-10-06T15:13:30.695Z,99.90
2018-10-06T15:16:00.021Z,99.90
2018-10-06T15:18:29.317Z,99.90
2018-10-06T15:20:58.653Z,99.90
2018-10-06T15:23:34.215Z,99.90
2018-10-06T15:26:03.420Z,99.90
2018-10-06T15:28:32.765Z,99.90
2018-10-06T15:31:02.939Z,99.90
2018-10-06T15:33:32.629Z,99.90
2018-10-06T15:36:02.465Z,99.90
2018-10-06T15:38:31.052Z,99.90
2018-10-06T15:40:59.718Z,99.90
2018-10-06T15:43:29.603Z,99.90
2018-10-06T15:45:58.984Z,99.90
2018-10-06T15:48:28.311Z,99.90
2018-10-06T15:50:57.599Z,99.90
2018-10-06T15:53:26.736Z,99.90
2018-10-06T15:55:56.267Z,99.90
2018-10-06T15:58:26.009Z,99.90
2018-10-06T16:00:55.420Z,99.90
2018-10-06T16:03:25.288Z,99.90
2018-10-06T16:05:54.710Z,99.90
2018-10-06T16:08:24.223Z,99.90
2018-10-06T16:10:53.615Z,99.90
2018-10-06T16:13:23.056Z,99.90
2018-10-06T16:15:52.402Z,99.90
2018-10-06T16:18:21.959Z,99.90
2018-10-06T16:20:52.559Z,99.90
2018-10-06T16:23:22.314Z,99.90
2018-10-06T16:25:51.913Z,99.90
2018-10-06T16:28:21.227Z,99.90
2018-10-06T16:30:50.558Z,99.90
2018-10-06T16:33:19.807Z,99.90
2018-10-06T16:35:49.149Z,99.90
2018-10-06T16:38:18.544Z,99.90
2018-10-06T16:40:48.162Z,99.90
2018-10-06T16:43:19.153Z,99.90
2018-10-06T16:45:49.040Z,99.90
2018-10-06T16:48:18.775Z,99.90
2018-10-06T16:50:48.517Z,99.90
2018-10-06T16:53:18.735Z,99.90
2018-10-06T16:55:48.647Z,99.90
2018-10-06T16:58:18.520Z,99.90
2018-10-06T17:00:48.638Z,99.90
2018-10-06T17:03:18.102Z,99.90
2018-10-06T17:05:48.023Z,99.90
2018-10-06T17:08:19.486Z,99.90
2018-10-06T17:10:48.510Z,99.90
2018-10-06T17:13:17.528Z,99.90
2018-10-06T17:15:46.375Z,99.90
2018-10-06T17:18:15.431Z,99.90
2018-10-06T17:20:44.191Z,99.90
2018-10-06T17:23:12.894Z,99.90
2018-10-06T17:25:41.609Z,99.90
2018-10-06T17:28:10.483Z,99.90
2018-10-06T17:30:39.261Z,99.90
2018-10-06T17:33:08.287Z,99.90
2018-10-06T17:35:36.788Z,99.90
2018-10-06T17:38:05.349Z,99.90
2018-10-06T17:40:34.833Z,99.90
2018-10-06T17:43:03.377Z,99.90
2018-10-06T17:45:32.005Z,99.90
2018-10-06T17:48:00.297Z,99.90
2018-10-06T17:50:28.891Z,99.90
2018-10-06T17:52:57.402Z,99.90
2018-10-06T17:55:25.914Z,99.90
2018-10-06T17:57:55.111Z,99.90
2018-10-06T18:00:25.172Z,99.90
2018-10-06T18:02:53.812Z,99.90
2018-10-06T18:05:24.897Z,99.90
2018-10-06T18:07:54.994Z,99.90
2018-10-06T18:10:24.649Z,99.90
2018-10-06T18:12:53.480Z,99.90
2018-10-06T18:15:22.526Z,99.90
2018-10-06T18:17:51.398Z,99.90
2018-10-06T18:20:20.548Z,99.90
2018-10-06T18:22:49.213Z,99.90
2018-10-06T18:25:18.478Z,99.90
2018-10-06T18:27:48.371Z,99.90
2018-10-06T18:30:17.537Z,99.90
2018-10-06T18:32:46.836Z,99.90
2018-10-06T18:35:16.211Z,99.90
2018-10-06T18:37:45.542Z,99.90
2018-10-06T18:40:14.054Z,99.90
2018-10-06T18:42:42.480Z,99.90
2018-10-06T18:45:10.821Z,99.90
2018-10-06T18:47:39.283Z,99.90
2018-10-06T18:50:07.662Z,99.90
2018-10-06T18:52:36.043Z,99.90
2018-10-06T18:55:04.409Z,99.90
2018-10-06T18:57:32.857Z,99.90
2018-10-06T19:00:01.545Z,99.90
2018-10-06T19:02:30.194Z,99.90
2018-10-06T19:04:58.758Z,99.90
2018-10-06T19:07:27.420Z,99.90
2018-10-06T19:09:55.962Z,99.90
2018-10-06T19:12:24.472Z,99.90
2018-10-06T19:14:57.317Z,99.90
2018-10-06T19:17:25.661Z,99.90
2018-10-06T19:19:54.249Z,99.90
2018-10-06T19:22:22.661Z,99.90
2018-10-06T19:24:51.893Z,99.90
2018-10-06T19:27:20.274Z,99.90
2018-10-06T19:29:50.405Z,99.90
2018-10-06T19:32:20.251Z,99.90
2018-10-06T19:34:49.124Z,99.90
2018-10-06T19:37:18.011Z,99.90
2018-10-06T19:39:46.679Z,99.90
2018-10-06T19:42:15.397Z,99.90
2018-10-06T19:44:44.174Z,99.90
2018-10-06T19:47:13.070Z,99.90
2018-10-06T19:49:42.123Z,99.90
2018-10-06T19:52:10.735Z,99.90
2018-10-06T19:54:39.723Z,99.90
2018-10-06T19:57:08.428Z,99.90
2018-10-06T19:59:37.349Z,99.90
2018-10-06T20:02:06.150Z,99.90
2018-10-06T20:04:34.722Z,99.90
2018-10-06T20:07:03.546Z,99.90
2018-10-06T20:09:32.298Z,99.90
2018-10-06T20:12:01.050Z,99.90
2018-10-06T20:14:29.912Z,99.90
2018-10-06T20:16:58.561Z,99.90
2018-10-06T20:19:27.289Z,99.90
2018-10-06T20:21:55.886Z,99.90
2018-10-06T20:24:24.747Z,99.90
2018-10-06T20:26:53.669Z,99.90
2018-10-06T20:29:22.393Z,99.90
2018-10-06T20:31:51.336Z,99.90
2018-10-06T20:34:20.129Z,99.90
2018-10-06T20:36:49.211Z,99.90
2018-10-06T20:39:18.083Z,99.90
2018-10-06T20:41:47.126Z,99.90
2018-10-06T20:44:16.358Z,99.90
2018-10-06T20:46:44.794Z,99.90
2018-10-06T20:49:13.289Z,99.90
2018-10-06T20:51:41.712Z,99.90
2018-10-06T20:54:10.343Z,99.90
2018-10-06T20:56:39.150Z,99.90
2018-10-06T20:59:08.122Z,99.90
2018-10-06T21:01:39.175Z,99.90
2018-10-06T21:04:07.483Z,99.90
2018-10-06T21:06:35.683Z,99.90
2018-10-06T21:09:05.315Z,99.90
2018-10-06T21:11:33.661Z,99.90
2018-10-06T21:14:01.943Z,99.90
2018-10-06T21:16:30.146Z,99.90
2018-10-06T21:18:58.494Z,99.90
2018-10-06T21:21:27.087Z,99.90
2018-10-06T21:23:55.530Z,99.90
2018-10-06T21:26:25.565Z,99.90
2018-10-06T21:28:54.081Z,99.90
2018-10-06T21:31:22.339Z,99.90
2018-10-06T21:33:51.051Z,99.90
2018-10-06T21:36:19.602Z,99.90
2018-10-06T21:38:47.950Z,99.90
2018-10-06T21:41:16.557Z,99.90
2018-10-06T21:43:45.189Z,99.90
2018-10-06T21:46:14.319Z,99.90
2018-10-06T21:48:42.803Z,99.90
2018-10-06T21:51:11.779Z,99.90
2018-10-06T21:53:40.477Z,99.90
2018-10-06T21:56:09.453Z,99.90
2018-10-06T21:58:38.457Z,99.90
2018-10-06T22:01:09.093Z,99.90
2018-10-06T22:03:37.688Z,99.90
2018-10-06T22:06:05.950Z,99.90
2018-10-06T22:08:34.995Z,99.90
2018-10-06T22:11:03.322Z,99.90
2018-10-06T22:13:31.604Z,99.90
2018-10-06T22:15:59.939Z,99.90
2018-10-06T22:18:28.655Z,99.90
2018-10-06T22:20:57.627Z,99.90
2018-10-06T22:23:26.608Z,99.90
2018-10-06T22:25:54.925Z,99.90
2018-10-06T22:28:23.570Z,99.90
2018-10-06T22:30:52.246Z,99.90
2018-10-06T22:33:20.930Z,99.90
2018-10-06T22:35:50.042Z,99.90
2018-10-06T22:38:18.634Z,99.90
2018-10-06T22:40:47.533Z,99.90
2018-10-06T22:43:16.350Z,99.90
2018-10-06T22:45:44.873Z,99.90
2018-10-06T22:48:13.789Z,99.90
2018-10-06T22:50:42.395Z,99.90
2018-10-06T22:53:11.030Z,99.90
2018-10-06T22:55:39.786Z,99.90
2018-10-06T22:58:08.294Z,99.90
2018-10-06T23:00:36.751Z,99.90
2018-10-06T23:03:05.702Z,99.90
2018-10-06T23:05:34.193Z,99.90
2018-10-06T23:08:03.558Z,99.90
2018-10-06T23:10:31.826Z,99.90
2018-10-06T23:13:00.454Z,99.90
2018-10-06T23:15:29.074Z,99.90
2018-10-06T23:17:57.806Z,99.90
2018-10-06T23:20:26.411Z,99.90
2018-10-06T23:22:55.344Z,99.90
2018-10-06T23:25:24.071Z,99.90
2018-10-06T23:27:52.599Z,99.90
2018-10-06T23:30:21.248Z,99.90
2018-10-06T23:32:50.408Z,99.90
2018-10-06T23:35:19.665Z,99.90
2018-10-06T23:37:48.223Z,99.90
2018-10-06T23:40:16.630Z,99.90
2018-10-06T23:42:45.471Z,99.90
2018-10-06T23:45:14.147Z,99.90
2018-10-06T23:47:42.594Z,99.90
2018-10-06T23:50:11.543Z,99.90
2018-10-06T23:52:40.538Z,99.90
2018-10-06T23:55:09.015Z,99.90
2018-10-06T23:57:37.703Z,99.90
